Time;durP1;ratioP1;P1;durP2;ratioP2;P2;SDS_P1;SDS_P2;PMS_P1;PMS_P2;Temp;Humidity;BMP_temperature;BMP_pressure;BME280_temperature;BME280_humidity;BME280_pressure;Samples;Min_cycle;Max_cycle;Signal;HPM_P1;HPM_P2
2022/05/15 00:00:41;;;;;;;15.30;5.53;;;;;;;11.51;83.34;99766.25;5053600;28;20079;-74
2022/05/15 00:03:14;;;;;;;14.45;6.43;;;;;;;11.43;83.75;99766.72;5053618;28;20072;-75
2022/05/15 00:05:42;;;;;;;15.48;6.10;;;;;;;11.44;83.29;99776.56;5053056;28;20057;-75
2022/05/15 00:08:10;;;;;;;12.88;5.55;;;;;;;11.45;83.61;99791.81;5053102;28;20048;-75
2022/05/15 00:10:39;;;;;;;14.27;5.68;;;;;;;11.53;83.26;99778.69;5053086;28;20053;-76
2022/05/15 00:13:09;;;;;;;14.85;6.03;;;;;;;11.45;83.60;99781.00;5052743;28;20494;-75
2022/05/15 00:15:37;;;;;;;17.58;5.90;;;;;;;11.49;83.54;99779.84;5053033;28;20409;-75
2022/05/15 00:18:05;;;;;;;18.42;6.10;;;;;;;11.43;83.80;99774.81;5050244;28;20048;-75
2022/05/15 00:20:34;;;;;;;20.08;6.50;;;;;;;11.45;83.18;99776.50;5052790;28;20045;-75
2022/05/15 00:23:02;;;;;;;15.55;5.88;;;;;;;11.55;83.43;99776.78;5052912;28;20049;-75
2022/05/15 00:25:29;;;;;;;16.38;6.25;;;;;;;11.36;84.08;99778.88;5052401;28;20061;-75
2022/05/15 00:27:58;;;;;;;14.40;5.95;;;;;;;11.37;84.44;99778.75;5052871;28;20529;-75
2022/05/15 00:30:27;;;;;;;13.88;5.78;;;;;;;11.32;84.20;99771.91;5052692;28;20138;-75
2022/05/15 00:32:54;;;;;;;14.77;6.20;;;;;;;11.28;84.05;99780.22;5052557;28;20052;-75
2022/05/15 00:35:22;;;;;;;17.10;6.13;;;;;;;11.42;83.89;99770.38;5052701;28;20057;-75
2022/05/15 00:37:49;;;;;;;13.50;5.88;;;;;;;11.24;84.86;99767.84;5087748;28;20055;-75
2022/05/15 00:40:19;;;;;;;15.50;6.40;;;;;;;11.26;84.43;99779.44;5114927;28;20400;-76
2022/05/15 00:42:47;;;;;;;17.05;6.35;;;;;;;11.31;84.19;99779.16;5115044;28;20044;-75
2022/05/15 00:45:16;;;;;;;20.08;6.40;;;;;;;11.27;84.31;99780.28;5115232;27;20039;-75
2022/05/15 00:47:45;;;;;;;15.32;6.80;;;;;;;11.45;83.67;99770.19;5115195;27;20040;-75
2022/05/15 00:50:16;;;;;;;15.32;6.07;;;;;;;11.38;83.99;99774.25;5114787;27;20058;-76
2022/05/15 00:52:47;;;;;;;16.55;5.82;;;;;;;11.37;84.16;99775.22;5115718;27;20046;-75
2022/05/15 00:55:17;;;;;;;15.90;6.20;;;;;;;11.30;84.17;99770.19;5115734;27;20044;-75
2022/05/15 00:57:48;;;;;;;16.23;6.65;;;;;;;11.62;82.49;99770.97;5114978;27;20039;-75
2022/05/15 01:00:18;;;;;;;16.65;6.25;;;;;;;11.40;84.12;99766.91;5116826;27;20040;-75
2022/05/15 01:02:50;;;;;;;15.95;6.22;;;;;;;11.40;83.96;99769.59;5114617;27;20047;-75
2022/05/15 01:05:19;;;;;;;16.95;6.10;;;;;;;11.27;84.50;99774.88;5115573;27;20048;-75
2022/05/15 01:07:46;;;;;;;16.55;5.85;;;;;;;11.15;84.65;99771.97;5114658;28;20058;-75
2022/05/15 01:10:14;;;;;;;19.90;6.65;;;;;;;11.14;84.88;99774.75;5114346;27;20043;-75
2022/05/15 01:12:43;;;;;;;16.98;6.30;;;;;;;11.21;84.69;99781.53;5114636;27;20043;-75
2022/05/15 01:15:12;;;;;;;13.82;6.00;;;;;;;11.28;84.42;99774.81;5114618;28;20054;-76
2022/05/15 01:17:40;;;;;;;16.23;6.47;;;;;;;11.19;85.25;99777.19;5114382;28;20055;-75
2022/05/15 01:20:13;;;;;;;16.45;6.20;;;;;;;11.18;84.40;99781.72;5114299;27;20039;-75
2022/05/15 01:22:41;;;;;;;14.23;6.60;;;;;;;11.09;85.27;99779.56;5114741;27;20047;-75
2022/05/15 01:25:14;;;;;;;20.02;6.45;;;;;;;11.01;85.57;99778.19;5113675;27;20051;-75
2022/05/15 01:27:42;;;;;;;16.88;6.38;;;;;;;10.93;85.67;99779.59;5115393;27;20043;-75
2022/05/15 01:30:10;;;;;;;14.25;6.07;;;;;;;10.89;85.78;99778.94;5114214;27;20047;-75
2022/05/15 01:32:38;;;;;;;16.25;6.38;;;;;;;10.83;86.25;99776.59;5113902;27;20047;-75
2022/05/15 01:35:06;;;;;;;17.75;6.45;;;;;;;10.78;86.36;99784.06;5113839;27;20040;-75
2022/05/15 01:37:33;;;;;;;14.60;6.60;;;;;;;10.89;86.36;99784.31;5113812;27;20072;-75
2022/05/15 01:40:03;;;;;;;17.52;6.47;;;;;;;10.92;86.04;99781.44;5113607;27;20040;-75
2022/05/15 01:42:31;;;;;;;16.33;6.50;;;;;;;10.93;85.90;99788.59;5113822;27;20047;-76
2022/05/15 01:44:58;;;;;;;14.93;6.70;;;;;;;11.01;85.29;99789.00;5114059;27;20427;-76
2022/05/15 01:47:26;;;;;;;16.88;6.70;;;;;;;10.98;85.72;99783.78;5113983;28;20055;-76
2022/05/15 01:49:54;;;;;;;18.95;6.22;;;;;;;11.03;85.35;99791.63;5113812;27;20071;-75
2022/05/15 01:52:21;;;;;;;15.43;6.45;;;;;;;10.91;85.55;99790.50;5113566;28;20056;-75
2022/05/15 01:54:49;;;;;;;14.85;6.28;;;;;;;10.93;85.39;99788.59;5113783;27;20101;-76
2022/05/15 01:57:18;;;;;;;15.93;6.07;;;;;;;10.82;86.03;99791.91;5113392;27;20477;-76
2022/05/15 01:59:45;;;;;;;12.95;6.28;;;;;;;10.93;85.96;99791.28;5113991;27;20047;-76
2022/05/15 02:02:13;;;;;;;17.40;6.57;;;;;;;10.87;85.81;99794.34;5113887;28;20043;-75
2022/05/15 02:04:40;;;;;;;14.55;6.55;;;;;;;10.82;85.85;99796.47;5113843;27;20393;-76
2022/05/15 02:07:08;;;;;;;17.13;6.90;;;;;;;10.79;86.13;99802.00;5113443;27;20051;-77
2022/05/15 02:09:36;;;;;;;14.80;6.55;;;;;;;10.64;86.97;99793.84;5113635;28;20499;-76
2022/05/15 02:12:04;;;;;;;15.52;6.18;;;;;;;10.60;87.39;99803.09;5113765;27;20052;-76
2022/05/15 02:14:33;;;;;;;13.32;6.15;;;;;;;10.48;88.05;99790.28;5113178;27;20412;-75
2022/05/15 02:17:00;;;;;;;15.30;6.40;;;;;;;10.57;87.23;99792.47;5113527;27;20054;-76
2022/05/15 02:19:28;;;;;;;16.45;6.95;;;;;;;10.60;86.97;99800.38;5113544;27;20050;-76
2022/05/15 02:21:55;;;;;;;16.40;6.63;;;;;;;10.58;86.95;99800.47;5113264;27;20044;-75
2022/05/15 02:24:23;;;;;;;14.43;6.45;;;;;;;10.64;87.05;99801.94;5113571;27;20096;-75
2022/05/15 02:26:51;;;;;;;15.70;6.43;;;;;;;10.60;87.26;99799.50;5113651;27;20044;-75
2022/05/15 02:29:19;;;;;;;17.02;6.43;;;;;;;10.49;87.56;99806.38;5113517;27;20047;-76
2022/05/15 02:31:48;;;;;;;17.50;6.90;;;;;;;10.47;87.00;99797.50;5113658;27;20541;-76
2022/05/15 02:34:15;;;;;;;15.70;6.50;;;;;;;10.51;87.02;99807.16;5113415;28;20046;-75
2022/05/15 02:36:43;;;;;;;14.65;6.57;;;;;;;10.52;86.79;99794.56;5113083;27;20050;-76
2022/05/15 02:39:10;;;;;;;15.98;6.40;;;;;;;10.52;86.80;99808.06;5113495;28;20484;-75
2022/05/15 02:41:38;;;;;;;17.30;6.55;;;;;;;10.50;86.68;99812.69;5113402;28;20088;-75
2022/05/15 02:44:05;;;;;;;18.77;6.90;;;;;;;10.40;87.25;99818.59;5113038;27;20046;-76
2022/05/15 02:46:33;;;;;;;15.52;6.70;;;;;;;10.36;87.87;99816.97;5113331;27;20060;-76
2022/05/15 02:51:47;;;;;;;15.27;6.85;;;;;;;10.53;86.49;99812.50;5113169;28;20043;-76
2022/05/15 02:54:14;;;;;;;15.82;6.70;;;;;;;10.61;86.28;99814.78;5113240;27;20385;-75
2022/05/15 02:56:42;;;;;;;16.50;6.90;;;;;;;10.47;86.74;99818.25;5113286;28;20044;-75
2022/05/15 02:59:10;;;;;;;16.30;6.72;;;;;;;10.50;86.72;99818.06;5113366;27;20047;-75
2022/05/15 03:01:38;;;;;;;15.63;6.60;;;;;;;10.39;87.75;99818.63;5112364;28;20046;-75
2022/05/15 03:04:06;;;;;;;17.50;6.85;;;;;;;10.33;87.93;99821.69;5113972;27;20439;-76
2022/05/15 03:06:34;;;;;;;14.45;6.43;;;;;;;10.36;87.56;99810.72;5112707;27;20043;-75
2022/05/15 03:09:02;;;;;;;15.52;7.07;;;;;;;10.41;87.15;99817.66;5113200;27;20046;-76
2022/05/15 03:11:31;;;;;;;18.83;6.55;;;;;;;10.37;88.01;99823.25;5113203;27;20052;-76
2022/05/15 03:13:58;;;;;;;17.48;6.63;;;;;;;10.34;88.26;99826.97;5112990;27;20050;-76
2022/05/15 03:16:28;;;;;;;16.50;6.32;;;;;;;10.43;87.67;99821.13;5113163;28;20382;-74
2022/05/15 03:18:55;;;;;;;16.23;6.38;;;;;;;10.40;88.03;99828.50;5112869;28;20050;-75
2022/05/15 03:21:30;;;;;;;14.00;6.75;;;;;;;10.45;87.95;99825.56;5112730;27;20043;-75
2022/05/15 03:23:58;;;;;;;13.88;6.43;;;;;;;10.57;86.93;99835.66;5114042;27;20047;-74
2022/05/15 03:26:27;;;;;;;14.07;6.22;;;;;;;10.52;87.69;99832.38;5113271;27;20048;-76
2022/05/15 03:28:55;;;;;;;14.95;6.40;;;;;;;10.53;87.33;99826.00;5116619;27;20044;-76
2022/05/15 03:31:22;;;;;;;15.52;5.93;;;;;;;10.53;88.03;99834.09;5116487;27;20048;-76
2022/05/15 03:33:50;;;;;;;17.10;6.57;;;;;;;10.54;87.57;99835.84;5116285;27;20039;-75
2022/05/15 03:36:18;;;;;;;14.50;6.50;;;;;;;10.74;86.74;99832.00;5116488;27;20054;-76
2022/05/15 03:38:48;;;;;;;12.48;6.00;;;;;;;10.87;85.91;99832.19;5116387;27;20039;-75
2022/05/15 03:41:17;;;;;;;15.23;6.53;;;;;;;10.94;85.96;99841.66;5117403;28;20492;-75
2022/05/15 03:43:44;;;;;;;18.08;6.38;;;;;;;10.92;85.39;99838.19;5116417;27;20043;-75
2022/05/15 03:46:12;;;;;;;13.25;6.05;;;;;;;10.71;87.39;99846.56;5116322;27;20504;-75
2022/05/15 03:48:40;;;;;;;15.35;6.50;;;;;;;10.64;87.65;99847.88;5115887;27;20043;-75
2022/05/15 03:51:07;;;;;;;15.85;6.80;;;;;;;10.55;89.02;99851.09;5117698;27;20047;-76
2022/05/15 03:53:35;;;;;;;15.07;6.50;;;;;;;10.50;89.90;99855.88;5116340;27;20039;-75
2022/05/15 03:56:05;;;;;;;16.92;7.22;;;;;;;10.50;89.76;99862.13;5116252;27;20492;-76
2022/05/15 03:58:35;;;;;;;16.00;6.90;;;;;;;10.54;89.97;99862.84;5114656;27;20504;-75
2022/05/15 04:01:04;;;;;;;15.77;6.25;;;;;;;10.83;88.07;99863.03;5116696;27;20036;-76
2022/05/15 04:03:31;;;;;;;19.08;6.38;;;;;;;10.95;87.41;99861.44;5115734;27;20052;-76
2022/05/15 04:05:59;;;;;;;16.63;6.50;;;;;;;11.12;87.22;99857.75;5115817;27;20431;-75
2022/05/15 04:08:27;;;;;;;17.98;6.45;;;;;;;11.34;85.81;99860.06;5115848;27;20047;-75
2022/05/15 04:10:55;;;;;;;16.55;6.43;;;;;;;11.42;85.19;99855.09;5115746;27;20054;-76
2022/05/15 04:13:24;;;;;;;16.27;6.25;;;;;;;11.39;86.02;99859.81;5115774;27;20131;-75
2022/05/15 04:15:52;;;;;;;16.95;6.53;;;;;;;11.23;86.79;99866.13;5115522;27;20051;-75
2022/05/15 04:18:19;;;;;;;16.92;6.22;;;;;;;11.25;86.76;99869.63;5115020;27;20046;-75
2022/05/15 04:20:46;;;;;;;15.25;5.65;;;;;;;11.47;86.05;99871.03;5115728;28;20047;-76
2022/05/15 04:23:14;;;;;;;17.05;6.20;;;;;;;11.57;84.75;99866.81;5115643;27;20055;-76
2022/05/15 04:25:41;;;;;;;20.13;6.13;;;;;;;11.64;85.01;99869.16;5115238;27;20043;-75
2022/05/15 04:28:09;;;;;;;14.95;5.95;;;;;;;11.74;84.53;99873.06;5115490;27;20484;-75
2022/05/15 04:30:38;;;;;;;14.73;6.15;;;;;;;11.74;84.21;99873.91;5115173;28;20043;-75
2022/05/15 04:33:06;;;;;;;17.17;6.95;;;;;;;11.55;85.21;99874.16;5115086;28;20051;-75
2022/05/15 04:35:34;;;;;;;13.57;5.93;;;;;;;11.80;83.73;99877.19;5115008;27;20067;-75
2022/05/15 04:38:01;;;;;;;13.45;5.50;;;;;;;11.85;83.14;99873.25;5113481;27;20047;-76
2022/05/15 04:40:29;;;;;;;14.00;5.20;;;;;;;11.80;82.93;99869.97;5113677;28;20460;-76
2022/05/15 04:42:58;;;;;;;14.40;5.00;;;;;;;11.92;82.14;99867.47;5115101;27;20039;-74
2022/05/15 04:45:26;;;;;;;14.95;5.22;;;;;;;11.97;82.36;99866.22;5114623;27;20097;-74
2022/05/15 04:47:54;;;;;;;18.70;5.35;;;;;;;11.85;82.79;99875.13;5094329;28;20059;-75
2022/05/15 04:50:22;;;;;;;15.23;5.47;;;;;;;11.92;82.77;99878.28;5094294;28;20127;-76
2022/05/15 04:52:50;;;;;;;14.70;4.88;;;;;;;12.16;81.43;99881.34;5094537;28;20066;-76
2022/05/15 04:55:17;;;;;;;13.13;5.32;;;;;;;12.15;81.51;99877.78;5094602;28;20048;-75
2022/05/15 04:57:45;;;;;;;13.32;4.95;;;;;;;12.24;81.38;99878.16;5094630;28;20051;-76
2022/05/15 05:00:17;;;;;;;13.07;4.68;;;;;;;12.22;81.34;99880.97;5094551;28;20550;-76
2022/05/15 05:02:44;;;;;;;13.10;6.13;;;;;;;12.25;80.90;99880.78;5094664;28;20040;-75
2022/05/15 05:05:14;;;;;;;12.70;4.68;;;;;;;12.37;80.24;99879.13;5094365;28;20066;-77
2022/05/15 05:07:41;;;;;;;13.60;4.55;;;;;;;12.42;80.79;99879.69;5094545;28;20097;-75
2022/05/15 05:10:11;;;;;;;12.30;4.75;;;;;;;12.45;80.01;99884.94;5112946;28;20092;-79
2022/05/15 05:12:38;;;;;;;13.57;4.95;;;;;;;12.42;79.42;99887.81;5114562;27;20047;-76
2022/05/15 05:15:08;;;;;;;16.30;4.40;;;;;;;12.47;78.86;99882.13;5114587;27;20043;-75
2022/05/15 05:17:36;;;;;;;13.27;4.88;;;;;;;12.41;78.55;99886.09;5114009;27;20043;-77
2022/05/15 05:20:04;;;;;;;12.65;4.53;;;;;;;12.44;78.23;99888.63;5132511;27;20047;-76
2022/05/15 05:22:33;;;;;;;10.55;4.30;;;;;;;12.45;77.72;99887.66;5135024;27;20092;-77
2022/05/15 05:25:00;;;;;;;13.05;4.10;;;;;;;12.48;77.18;99896.56;5134884;27;20044;-75
2022/05/15 05:27:28;;;;;;;13.02;4.32;;;;;;;12.56;77.20;99895.06;5134956;27;20492;-75
2022/05/15 05:29:56;;;;;;;12.60;4.30;;;;;;;12.62;76.77;99896.53;5134337;27;20043;-76
2022/05/15 05:32:23;;;;;;;12.57;4.18;;;;;;;12.63;75.77;99898.28;5134869;27;20043;-76
2022/05/15 05:34:51;;;;;;;10.30;4.03;;;;;;;12.65;75.44;99899.03;5134769;27;20047;-73
2022/05/15 05:37:18;;;;;;;13.48;4.22;;;;;;;12.67;74.18;99902.53;5134764;27;20054;-72
2022/05/15 05:39:47;;;;;;;11.25;3.90;;;;;;;12.63;73.96;99898.28;5128668;27;20047;-72
2022/05/15 05:42:15;;;;;;;13.75;3.63;;;;;;;12.65;74.13;99901.75;5114083;28;20047;-73
2022/05/15 05:44:42;;;;;;;11.23;3.88;;;;;;;12.67;74.45;99896.25;5113746;27;20044;-72
2022/05/15 05:47:10;;;;;;;11.57;3.78;;;;;;;12.72;75.39;99900.38;5114067;27;20051;-73
2022/05/15 05:49:37;;;;;;;12.75;4.15;;;;;;;12.71;74.65;99903.22;5113142;27;20074;-72
2022/05/15 05:52:06;;;;;;;19.67;4.65;;;;;;;12.83;74.76;99907.84;5113901;27;20402;-72
2022/05/15 05:54:33;;;;;;;15.63;4.28;;;;;;;12.88;74.87;99904.84;5113636;28;20052;-72
2022/05/15 05:57:02;;;;;;;9.13;3.30;;;;;;;12.84;74.02;99908.69;5114072;27;20504;-73
2022/05/15 05:59:30;;;;;;;11.93;4.13;;;;;;;12.84;74.17;99912.28;5113319;28;20040;-72
2022/05/15 06:01:57;;;;;;;17.35;4.28;;;;;;;12.83;73.46;99905.13;5113864;28;20043;-72
2022/05/15 06:04:42;;;;;;;10.68;3.67;;;;;;;12.80;73.50;99913.44;5113840;27;20048;-73
2022/05/15 06:07:12;;;;;;;11.13;3.60;;;;;;;12.85;74.00;99911.31;5113727;28;20078;-73
2022/05/15 06:09:40;;;;;;;11.65;3.40;;;;;;;12.90;72.90;99909.16;5113690;27;20047;-73
2022/05/15 06:12:11;;;;;;;12.45;3.33;;;;;;;12.89;72.71;99917.41;5113633;27;20431;-73
2022/05/15 06:14:38;;;;;;;10.77;3.35;;;;;;;12.98;72.87;99911.38;5114350;27;20097;-73
2022/05/15 06:17:06;;;;;;;16.00;3.58;;;;;;;13.04;72.38;99908.28;5113494;28;20031;-73
2022/05/15 06:19:34;;;;;;;8.73;3.55;;;;;;;13.00;72.80;99908.56;5127620;27;20387;-73
2022/05/15 06:22:02;;;;;;;10.52;3.20;;;;;;;13.00;72.52;99906.72;5134214;27;20050;-73
2022/05/15 06:24:29;;;;;;;13.07;3.63;;;;;;;13.01;72.15;99916.59;5133956;27;20137;-72
2022/05/15 06:26:59;;;;;;;9.98;3.20;;;;;;;12.99;71.36;99913.13;5134171;27;20039;-73
2022/05/15 06:29:29;;;;;;;14.10;3.53;;;;;;;13.02;71.93;99918.34;5134113;27;20043;-74
2022/05/15 06:31:56;;;;;;;8.55;2.75;;;;;;;13.07;71.29;99918.06;5134005;27;20043;-73
2022/05/15 06:34:24;;;;;;;7.10;2.88;;;;;;;13.08;71.08;99919.78;5134093;27;20062;-74
2022/05/15 06:36:51;;;;;;;7.47;2.40;;;;;;;13.23;70.49;99911.59;5134125;27;20127;-73
2022/05/15 06:39:19;;;;;;;9.88;2.65;;;;;;;13.35;69.68;99910.78;5133469;27;20035;-73
2022/05/15 06:41:50;;;;;;;8.57;2.90;;;;;;;13.32;68.86;99911.88;5113437;28;20489;-73
2022/05/15 06:44:18;;;;;;;9.35;2.45;;;;;;;13.47;68.85;99914.56;5113311;27;20047;-73
2022/05/15 06:46:47;;;;;;;7.30;2.10;;;;;;;13.51;67.31;99905.22;5113407;28;20047;-74
2022/05/15 06:49:15;;;;;;;16.30;2.17;;;;;;;13.56;67.43;99908.50;5113056;28;20101;-73
2022/05/15 06:51:44;;;;;;;7.07;2.33;;;;;;;13.55;66.73;99914.91;5113377;27;20048;-73
2022/05/15 06:54:11;;;;;;;9.80;2.50;;;;;;;13.61;66.49;99914.47;5113261;27;20048;-73
2022/05/15 06:59:24;;;;;;;8.93;2.55;;;;;;;13.72;67.14;99912.91;5111984;28;20137;-78
2022/05/15 07:01:53;;;;;;;9.05;2.00;;;;;;;13.65;65.78;99916.97;5112386;27;20497;-76
2022/05/15 07:04:20;;;;;;;12.98;2.05;;;;;;;13.71;63.39;99916.59;5113404;27;20055;-78
2022/05/15 07:06:48;;;;;;;4.47;1.92;;;;;;;13.77;64.15;99919.72;5113757;27;20047;-78
2022/05/15 07:09:15;;;;;;;7.03;1.90;;;;;;;13.89;64.67;99918.03;5113594;27;20531;-78
2022/05/15 07:11:43;;;;;;;8.73;2.42;;;;;;;13.98;65.18;99929.22;5113376;27;20048;-77
2022/05/15 07:14:10;;;;;;;7.65;2.47;;;;;;;13.94;62.22;99925.88;5113244;27;20096;-77
2022/05/15 07:16:38;;;;;;;7.18;2.22;;;;;;;13.96;60.98;99936.59;5113110;27;20113;-78
2022/05/15 07:19:07;;;;;;;9.07;2.85;;;;;;;14.00;62.40;99935.41;5112418;27;20050;-77
2022/05/15 07:21:35;;;;;;;12.27;2.47;;;;;;;14.02;63.22;99936.16;5112761;27;20043;-76
2022/05/15 07:24:03;;;;;;;7.45;1.90;;;;;;;14.03;61.69;99935.19;5112770;27;20043;-78
2022/05/15 07:26:30;;;;;;;10.18;2.25;;;;;;;14.12;61.24;99939.13;5112525;27;20039;-77
2022/05/15 07:28:58;;;;;;;7.47;2.10;;;;;;;14.01;60.13;99948.00;5112324;27;20373;-77
2022/05/15 07:31:26;;;;;;;7.78;2.05;;;;;;;13.99;58.44;99944.53;5112622;27;20446;-77
2022/05/15 07:33:53;;;;;;;6.60;2.00;;;;;;;14.03;58.55;99935.19;5115885;27;20480;-77
2022/05/15 07:36:23;;;;;;;7.93;1.92;;;;;;;14.11;59.88;99938.28;5112658;27;20046;-76
2022/05/15 07:38:50;;;;;;;8.63;2.13;;;;;;;14.11;59.52;99938.28;5112383;27;20075;-75
2022/05/15 07:41:18;;;;;;;7.25;2.10;;;;;;;14.20;58.97;99934.03;5111371;27;20039;-77
2022/05/15 07:43:46;;;;;;;6.07;2.10;;;;;;;14.25;59.23;99944.56;5112577;27;20383;-75
2022/05/15 07:46:13;;;;;;;6.47;2.10;;;;;;;14.32;58.41;99949.47;5112246;27;20046;-76
2022/05/15 07:48:41;;;;;;;8.98;2.50;;;;;;;14.32;58.19;99951.31;5114780;27;20062;-77
2022/05/15 07:51:12;;;;;;;8.50;2.30;;;;;;;14.37;58.69;99945.56;5113893;28;20393;-76
2022/05/15 07:53:41;;;;;;;7.78;2.28;;;;;;;14.49;59.38;99947.41;5113286;27;20044;-77
2022/05/15 07:56:12;;;;;;;6.13;2.00;;;;;;;14.45;57.49;99951.31;5111737;28;20043;-75
2022/05/15 07:58:40;;;;;;;9.30;2.30;;;;;;;14.52;58.97;99951.75;5112197;27;20066;-76
2022/05/15 08:01:09;;;;;;;7.85;2.08;;;;;;;14.59;58.34;99948.47;5109255;28;20115;-76
2022/05/15 08:03:43;;;;;;;7.85;2.13;;;;;;;14.68;57.05;99946.06;5120477;27;20050;-76
2022/05/15 08:08:59;;;;;;;8.07;2.35;;;;;;;14.77;58.31;99968.06;5114521;28;20048;-75
2022/05/15 08:11:28;;;;;;;7.07;2.10;;;;;;;14.78;57.90;99952.63;5111254;27;20063;-75
2022/05/15 08:13:56;;;;;;;5.28;1.98;;;;;;;14.82;58.43;99954.16;5110973;27;20047;-76
2022/05/15 08:16:24;;;;;;;8.77;2.00;;;;;;;14.90;58.34;99954.44;5111428;27;20036;-75
2022/05/15 08:24:23;;;;;;;5.30;2.00;;;;;;;15.06;58.20;99959.66;5111475;28;20539;-79
2022/05/15 08:26:51;;;;;;;4.88;1.95;;;;;;;15.17;57.64;99960.69;5110519;28;20258;-76
2022/05/15 08:29:20;;;;;;;6.57;2.00;;;;;;;15.20;56.46;99957.75;5108743;28;20459;-78
2022/05/15 08:31:47;;;;;;;8.30;2.17;;;;;;;15.17;56.24;99956.13;5111465;27;20104;-78
2022/05/15 08:34:15;;;;;;;9.30;2.28;;;;;;;15.32;57.87;99969.59;5111236;27;20048;-78
2022/05/15 08:36:44;;;;;;;7.38;2.10;;;;;;;15.23;54.58;99964.81;5111460;27;20054;-78
2022/05/15 08:39:12;;;;;;;5.10;1.80;;;;;;;15.23;55.38;99968.41;5114234;27;20168;-76
2022/05/15 08:41:48;;;;;;;6.43;2.00;;;;;;;15.26;55.67;99965.44;5110807;27;20043;-76
2022/05/15 08:44:21;;;;;;;6.40;1.80;;;;;;;15.34;56.33;99962.16;5113017;27;20059;-78
2022/05/15 08:47:09;;;;;;;7.55;1.85;;;;;;;15.30;55.58;99967.00;5111656;27;20050;-78
2022/05/15 08:49:39;;;;;;;10.77;2.00;;;;;;;15.30;55.18;99966.09;5112530;27;20060;-77
2022/05/15 08:52:11;;;;;;;9.93;2.15;;;;;;;15.38;55.32;99963.69;5112650;27;20044;-77
2022/05/15 08:54:42;;;;;;;7.30;1.92;;;;;;;15.41;56.23;99965.31;5110517;27;20509;-78
2022/05/15 08:57:16;;;;;;;6.38;1.83;;;;;;;15.34;55.11;99970.34;5113682;28;20039;-76
2022/05/15 08:59:51;;;;;;;6.70;1.90;;;;;;;15.49;54.65;99968.31;5112306;28;20054;-76
2022/05/15 09:02:19;;;;;;;5.97;2.10;;;;;;;15.42;54.21;99975.22;5115143;28;20043;-79
2022/05/15 09:04:46;;;;;;;5.53;1.75;;;;;;;15.38;52.67;99981.88;5113181;27;20047;-75
2022/05/15 09:07:22;;;;;;;7.40;2.50;;;;;;;15.39;54.41;99987.19;5113315;27;20044;-75
2022/05/15 09:09:55;;;;;;;7.93;2.03;;;;;;;15.63;54.67;99980.91;5115085;28;20092;-74
2022/05/15 09:12:25;;;;;;;5.22;1.80;;;;;;;15.54;54.93;99973.44;5112332;28;20048;-75
2022/05/15 09:15:00;;;;;;;9.23;1.67;;;;;;;15.45;55.58;99973.13;5113298;27;20535;-73
2022/05/15 09:17:34;;;;;;;6.35;2.10;;;;;;;15.43;55.48;99974.22;5110337;28;20055;-73
2022/05/15 09:20:05;;;;;;;7.72;1.98;;;;;;;15.39;55.13;99984.47;5111040;28;20442;-74
2022/05/15 09:22:36;;;;;;;6.65;2.00;;;;;;;15.17;54.68;99974.28;5110764;28;20047;-73
2022/05/15 09:25:09;;;;;;;7.50;2.20;;;;;;;15.45;55.36;99983.16;5113643;28;20043;-73
2022/05/15 09:27:41;;;;;;;5.32;2.00;;;;;;;15.76;55.10;99983.56;5113034;28;20050;-73
2022/05/15 09:30:12;;;;;;;9.65;2.00;;;;;;;15.72;54.89;99977.47;5116301;27;20042;-72
2022/05/15 09:32:41;;;;;;;7.57;2.10;;;;;;;15.33;54.67;99985.81;5114854;27;20040;-73
2022/05/15 09:35:30;;;;;;;5.22;1.80;;;;;;;15.61;54.49;99977.44;5114888;27;20055;-74
2022/05/15 09:43:30;;;;;;;8.98;2.00;;;;;;;15.75;53.06;99981.81;5091512;28;20055;-76
2022/05/15 09:43:36;;;;;;;7.80;2.10;;;;;;;15.88;52.23;99990.81;5104306;28;20092;-76
2022/05/15 09:46:12;;;;;;;9.32;1.92;;;;;;;15.84;52.31;99981.13;5110339;27;20098;-77
2022/05/15 09:48:42;;;;;;;9.60;2.13;;;;;;;15.89;51.59;99984.38;5111041;27;20090;-75
2022/05/15 09:51:13;;;;;;;7.13;1.92;;;;;;;15.97;51.42;99975.63;5111397;27;20078;-75
2022/05/15 09:53:43;;;;;;;4.50;1.58;;;;;;;16.12;52.47;99987.22;5112274;27;20051;-76
2022/05/15 09:56:14;;;;;;;6.57;2.20;;;;;;;16.06;50.85;99990.38;5110407;28;20043;-75
2022/05/15 09:58:48;;;;;;;8.48;1.98;;;;;;;16.02;51.06;99978.00;5109647;27;20043;-74
2022/05/15 10:01:27;;;;;;;6.38;2.13;;;;;;;16.33;53.07;99987.41;5111576;27;20058;-75
2022/05/15 10:03:57;;;;;;;7.90;2.10;;;;;;;16.14;50.77;99987.97;5111209;27;20050;-75
2022/05/15 10:06:26;;;;;;;8.07;1.92;;;;;;;16.22;51.34;99985.50;5109888;28;20047;-75
2022/05/15 10:09:12;;;;;;;6.20;2.10;;;;;;;15.90;47.99;99991.56;5109964;27;20481;-76
2022/05/15 10:11:41;;;;;;;;;;;;;;;15.69;48.45;99991.31;5110800;27;20044;-75
2022/05/15 10:14:21;;;;;;;6.05;1.52;;;;;;;15.88;50.15;99984.50;5110127;27;19920;-74
2022/05/15 10:16:51;;;;;;;7.57;2.45;;;;;;;16.14;50.31;99987.06;5110481;27;20044;-75
2022/05/15 10:19:24;;;;;;;6.80;1.98;;;;;;;16.42;51.40;99983.06;5121879;27;20074;-75
2022/05/15 10:21:58;;;;;;;7.40;1.63;;;;;;;16.50;50.38;99991.50;5129643;27;20578;-75
2022/05/15 10:24:29;;;;;;;7.10;1.88;;;;;;;16.55;49.99;99982.97;5132155;27;20122;-75
2022/05/15 10:27:02;;;;;;;5.97;1.80;;;;;;;16.67;50.76;99981.13;5130737;27;20119;-75
2022/05/15 10:29:37;;;;;;;8.57;2.20;;;;;;;16.75;49.99;99984.09;5130770;27;20075;-75
2022/05/15 10:32:10;;;;;;;9.38;3.20;;;;;;;16.61;47.49;99981.63;5131185;27;20039;-75
2022/05/15 10:34:38;;;;;;;5.90;1.70;;;;;;;16.71;48.11;99984.44;5130693;27;20051;-75
2022/05/15 10:37:34;;;;;;;5.05;1.80;;;;;;;16.75;48.90;99983.25;5133472;27;20104;-75
2022/05/15 10:40:24;;;;;;;4.32;1.67;;;;;;;16.90;48.57;99982.00;5134730;27;20126;-76
2022/05/15 10:43:06;;;;;;;6.63;1.83;;;;;;;16.80;49.73;99979.13;5118173;27;20092;-75
2022/05/15 10:45:39;;;;;;;4.13;1.70;;;;;;;16.86;48.26;99980.50;5114002;27;20051;-75
2022/05/15 10:48:30;;;;;;;7.88;1.75;;;;;;;16.90;47.43;99982.00;5114657;27;20043;-76
2022/05/15 10:51:01;;;;;;;7.00;2.00;;;;;;;17.02;46.39;99980.16;5115412;27;20408;-75
2022/05/15 10:59:34;;;;;;;4.80;1.65;;;;;;;17.04;46.15;99985.50;5114271;28;20047;-75
2022/05/15 11:02:10;;;;;;;6.32;1.70;;;;;;;17.14;47.18;99981.03;5114185;27;20039;-76
2022/05/15 11:04:45;;;;;;;5.35;1.50;;;;;;;16.76;48.46;99984.97;5114316;27;20047;-75
2022/05/15 11:07:21;;;;;;;6.55;2.03;;;;;;;17.03;47.83;99989.22;5114787;27;20056;-76
2022/05/15 11:09:59;;;;;;;5.47;1.60;;;;;;;17.13;47.22;99973.81;5114419;27;20495;-75
2022/05/15 11:12:33;;;;;;;7.68;1.95;;;;;;;17.38;46.35;99975.41;5114700;27;20059;-75
2022/05/15 11:15:09;;;;;;;9.00;2.08;;;;;;;17.56;46.54;99972.13;5113697;27;20373;-75
2022/05/15 11:17:45;;;;;;;6.32;1.70;;;;;;;17.45;45.57;99973.03;5113382;27;20088;-75
2022/05/15 11:20:17;;;;;;;7.32;2.03;;;;;;;17.59;46.27;99971.88;5128869;27;20050;-75
2022/05/15 11:22:48;;;;;;;7.15;1.90;;;;;;;17.65;46.38;99976.81;5115887;27;20507;-75
2022/05/15 11:25:20;;;;;;;6.68;1.60;;;;;;;17.56;46.15;99974.00;5111354;28;20390;-75
2022/05/15 11:27:51;;;;;;;7.72;1.77;;;;;;;17.40;46.87;99977.16;5116226;27;20404;-75
2022/05/15 11:30:22;;;;;;;7.47;2.33;;;;;;;17.03;46.45;99981.03;5116566;27;20484;-75
2022/05/15 11:33:03;;;;;;;8.13;2.30;;;;;;;17.25;47.06;99985.59;5112748;27;20407;-75
2022/05/15 11:35:37;;;;;;;7.38;2.00;;;;;;;17.32;46.74;99973.16;5111303;28;20047;-75
2022/05/15 11:38:20;;;;;;;9.50;1.70;;;;;;;17.26;45.75;99981.88;5127733;27;20051;-75
2022/05/15 11:40:51;;;;;;;10.55;2.08;;;;;;;17.29;45.84;99978.88;5115170;27;20047;-75
2022/05/15 11:43:58;;;;;;;6.30;1.88;;;;;;;17.42;46.44;99981.47;5118477;27;20040;-76
2022/05/15 11:46:57;;;;;;;6.50;1.90;;;;;;;17.22;46.74;99983.13;5116844;28;20067;-76
2022/05/15 11:49:40;;;;;;;6.47;2.20;;;;;;;17.60;47.22;99980.94;5096918;28;20051;-75
2022/05/15 11:52:18;;;;;;;5.57;1.80;;;;;;;17.78;46.14;99976.66;5110347;28;20043;-75
2022/05/15 11:54:49;;;;;;;8.82;1.70;;;;;;;17.56;46.50;99972.13;5111282;28;20044;-75
2022/05/15 11:57:40;;;;;;;8.75;1.92;;;;;;;17.56;46.59;99972.13;5112878;27;20044;-75
2022/05/15 12:00:12;;;;;;;5.70;1.95;;;;;;;17.70;46.99;99973.72;5111771;27;20500;-76
2022/05/15 12:02:51;;;;;;;10.90;2.40;;;;;;;17.74;46.18;99972.44;5112109;27;20051;-76
2022/05/15 12:06:00;;;;;;;8.05;2.17;;;;;;;17.90;47.90;99977.47;5112526;28;20043;-75